sensor_id;sensor_type;location;lat;lon;timestamp;P1;durP1;ratioP1;P2;durP2;ratioP2
27977;SDS011;15314;49.248;6.968;2023-12-29T00:00:20;10.15;;;9.60;;
27977;SDS011;15314;49.248;6.968;2023-12-29T00:01:24;11.50;;;10.68;;
27977;SDS011;15314;49.248;6.968;2023-12-29T00:02:29;11.02;;;10.07;;
27977;SDS011;15314;49.248;6.968;2023-12-29T00:03:29;11.35;;;10.38;;
27977;SDS011;15314;49.248;6.968;2023-12-29T00:04:30;11.13;;;10.38;;
27977;SDS011;15314;49.248;6.968;2023-12-29T00:05:31;11.52;;;10.70;;
27977;SDS011;15314;49.248;6.968;2023-12-29T00:06:31;10.93;;;10.23;;
27977;SDS011;15314;49.248;6.968;2023-12-29T00:07:32;10.95;;;10.20;;
27977;SDS011;15314;49.248;6.968;2023-12-29T00:08:33;10.43;;;9.85;;
27977;SDS011;15314;49.248;6.968;2023-12-29T00:09:33;10.63;;;9.90;;
27977;SDS011;15314;49.248;6.968;2023-12-29T00:10:40;10.23;;;9.63;;
27977;SDS011;15314;49.248;6.968;2023-12-29T00:11:41;10.48;;;9.77;;
27977;SDS011;15314;49.248;6.968;2023-12-29T00:12:41;10.00;;;9.32;;
27977;SDS011;15314;49.248;6.968;2023-12-29T00:13:42;10.40;;;9.60;;
27977;SDS011;15314;49.248;6.968;2023-12-29T00:14:43;9.93;;;9.32;;
27977;SDS011;15314;49.248;6.968;2023-12-29T00:15:43;10.02;;;9.38;;
27977;SDS011;15314;49.248;6.968;2023-12-29T00:16:46;9.95;;;9.35;;
27977;SDS011;15314;49.248;6.968;2023-12-29T00:17:47;10.50;;;9.70;;
27977;SDS011;15314;49.248;6.968;2023-12-29T00:18:48;9.98;;;9.18;;
27977;SDS011;15314;49.248;6.968;2023-12-29T00:19:48;10.10;;;9.40;;
27977;SDS011;15314;49.248;6.968;2023-12-29T00:20:49;10.25;;;9.45;;
27977;SDS011;15314;49.248;6.968;2023-12-29T00:21:49;10.55;;;9.85;;
27977;SDS011;15314;49.248;6.968;2023-12-29T00:22:50;10.10;;;9.60;;
27977;SDS011;15314;49.248;6.968;2023-12-29T00:23:51;10.18;;;9.45;;
27977;SDS011;15314;49.248;6.968;2023-12-29T00:24:51;10.13;;;9.32;;
27977;SDS011;15314;49.248;6.968;2023-12-29T00:25:52;10.60;;;9.68;;
27977;SDS011;15314;49.248;6.968;2023-12-29T00:26:52;10.43;;;9.60;;
27977;SDS011;15314;49.248;6.968;2023-12-29T00:27:53;10.90;;;10.10;;
27977;SDS011;15314;49.248;6.968;2023-12-29T00:28:54;10.23;;;9.48;;
27977;SDS011;15314;49.248;6.968;2023-12-29T00:29:55;10.30;;;9.57;;
27977;SDS011;15314;49.248;6.968;2023-12-29T00:30:55;10.02;;;9.52;;
27977;SDS011;15314;49.248;6.968;2023-12-29T00:31:56;10.02;;;9.40;;
27977;SDS011;15314;49.248;6.968;2023-12-29T00:32:57;10.15;;;9.55;;
27977;SDS011;15314;49.248;6.968;2023-12-29T00:33:57;10.25;;;9.65;;
27977;SDS011;15314;49.248;6.968;2023-12-29T00:34:58;9.65;;;9.10;;
27977;SDS011;15314;49.248;6.968;2023-12-29T00:35:59;10.63;;;9.85;;
27977;SDS011;15314;49.248;6.968;2023-12-29T00:36:59;10.23;;;9.68;;
27977;SDS011;15314;49.248;6.968;2023-12-29T00:38:00;10.23;;;9.52;;
27977;SDS011;15314;49.248;6.968;2023-12-29T00:39:00;10.95;;;9.80;;
27977;SDS011;15314;49.248;6.968;2023-12-29T00:40:01;10.73;;;9.88;;
27977;SDS011;15314;49.248;6.968;2023-12-29T00:41:02;10.07;;;9.40;;
27977;SDS011;15314;49.248;6.968;2023-12-29T00:42:05;10.63;;;10.02;;
27977;SDS011;15314;49.248;6.968;2023-12-29T00:43:06;9.65;;;9.05;;
27977;SDS011;15314;49.248;6.968;2023-12-29T00:44:07;10.57;;;9.63;;
27977;SDS011;15314;49.248;6.968;2023-12-29T00:45:08;10.60;;;9.90;;
27977;SDS011;15314;49.248;6.968;2023-12-29T00:46:09;10.85;;;10.15;;
27977;SDS011;15314;49.248;6.968;2023-12-29T00:47:09;9.82;;;9.13;;
27977;SDS011;15314;49.248;6.968;2023-12-29T00:48:10;10.15;;;9.45;;
27977;SDS011;15314;49.248;6.968;2023-12-29T00:49:11;10.10;;;9.43;;
27977;SDS011;15314;49.248;6.968;2023-12-29T00:50:11;10.25;;;9.65;;
27977;SDS011;15314;49.248;6.968;2023-12-29T00:51:12;10.55;;;9.82;;
27977;SDS011;15314;49.248;6.968;2023-12-29T00:52:12;9.95;;;9.40;;
27977;SDS011;15314;49.248;6.968;2023-12-29T00:53:13;10.10;;;9.50;;
27977;SDS011;15314;49.248;6.968;2023-12-29T00:54:14;10.45;;;9.77;;
27977;SDS011;15314;49.248;6.968;2023-12-29T00:55:15;10.85;;;10.20;;
27977;SDS011;15314;49.248;6.968;2023-12-29T00:56:16;10.95;;;10.30;;
27977;SDS011;15314;49.248;6.968;2023-12-29T00:57:17;9.98;;;9.30;;
27977;SDS011;15314;49.248;6.968;2023-12-29T00:58:18;10.60;;;9.90;;
27977;SDS011;15314;49.248;6.968;2023-12-29T00:59:19;10.70;;;9.90;;
27977;SDS011;15314;49.248;6.968;2023-12-29T01:00:20;10.00;;;9.40;;
27977;SDS011;15314;49.248;6.968;2023-12-29T01:01:20;10.65;;;9.82;;
27977;SDS011;15314;49.248;6.968;2023-12-29T01:02:21;10.82;;;10.13;;
27977;SDS011;15314;49.248;6.968;2023-12-29T01:03:22;10.00;;;9.27;;
27977;SDS011;15314;49.248;6.968;2023-12-29T01:04:26;10.18;;;9.48;;
27977;SDS011;15314;49.248;6.968;2023-12-29T01:05:27;10.38;;;9.77;;
27977;SDS011;15314;49.248;6.968;2023-12-29T01:06:27;10.02;;;9.30;;
27977;SDS011;15314;49.248;6.968;2023-12-29T01:07:28;10.75;;;10.05;;
27977;SDS011;15314;49.248;6.968;2023-12-29T01:08:29;9.82;;;9.25;;
27977;SDS011;15314;49.248;6.968;2023-12-29T01:09:29;10.27;;;9.65;;
27977;SDS011;15314;49.248;6.968;2023-12-29T01:10:30;10.57;;;9.88;;
27977;SDS011;15314;49.248;6.968;2023-12-29T01:11:31;10.30;;;9.77;;
27977;SDS011;15314;49.248;6.968;2023-12-29T01:12:31;10.55;;;9.85;;
27977;SDS011;15314;49.248;6.968;2023-12-29T01:13:32;10.02;;;9.43;;
27977;SDS011;15314;49.248;6.968;2023-12-29T01:14:33;9.80;;;9.30;;
27977;SDS011;15314;49.248;6.968;2023-12-29T01:15:33;10.48;;;9.70;;
27977;SDS011;15314;49.248;6.968;2023-12-29T01:16:34;9.95;;;9.25;;
27977;SDS011;15314;49.248;6.968;2023-12-29T01:17:35;10.65;;;9.95;;
27977;SDS011;15314;49.248;6.968;2023-12-29T01:18:35;10.60;;;10.00;;
27977;SDS011;15314;49.248;6.968;2023-12-29T01:19:36;10.18;;;9.55;;
27977;SDS011;15314;49.248;6.968;2023-12-29T01:20:37;10.63;;;9.88;;
27977;SDS011;15314;49.248;6.968;2023-12-29T01:21:39;10.27;;;9.63;;
27977;SDS011;15314;49.248;6.968;2023-12-29T01:22:40;10.13;;;9.43;;
27977;SDS011;15314;49.248;6.968;2023-12-29T01:23:41;9.82;;;9.32;;
27977;SDS011;15314;49.248;6.968;2023-12-29T01:24:41;10.60;;;9.80;;
27977;SDS011;15314;49.248;6.968;2023-12-29T01:25:42;10.60;;;9.90;;
27977;SDS011;15314;49.248;6.968;2023-12-29T01:26:42;9.90;;;9.30;;
27977;SDS011;15314;49.248;6.968;2023-12-29T01:27:43;11.52;;;10.50;;
27977;SDS011;15314;49.248;6.968;2023-12-29T01:28:44;10.55;;;9.80;;
27977;SDS011;15314;49.248;6.968;2023-12-29T01:29:44;9.77;;;9.27;;
27977;SDS011;15314;49.248;6.968;2023-12-29T01:30:45;10.52;;;9.73;;
27977;SDS011;15314;49.248;6.968;2023-12-29T01:31:46;9.75;;;9.15;;
27977;SDS011;15314;49.248;6.968;2023-12-29T01:32:47;10.05;;;9.45;;
27977;SDS011;15314;49.248;6.968;2023-12-29T01:33:48;10.63;;;9.95;;
27977;SDS011;15314;49.248;6.968;2023-12-29T01:34:48;10.18;;;9.68;;
27977;SDS011;15314;49.248;6.968;2023-12-29T01:35:49;11.15;;;10.45;;
27977;SDS011;15314;49.248;6.968;2023-12-29T01:36:50;11.13;;;10.32;;
27977;SDS011;15314;49.248;6.968;2023-12-29T01:37:51;11.27;;;10.45;;
27977;SDS011;15314;49.248;6.968;2023-12-29T01:38:52;10.77;;;10.00;;
27977;SDS011;15314;49.248;6.968;2023-12-29T01:39:52;11.15;;;10.20;;
27977;SDS011;15314;49.248;6.968;2023-12-29T01:40:53;10.40;;;9.75;;
27977;SDS011;15314;49.248;6.968;2023-12-29T01:41:55;10.45;;;9.85;;
27977;SDS011;15314;49.248;6.968;2023-12-29T01:42:56;10.45;;;9.75;;
27977;SDS011;15314;49.248;6.968;2023-12-29T01:44:59;11.20;;;10.32;;
27977;SDS011;15314;49.248;6.968;2023-12-29T01:46:01;10.93;;;10.30;;
27977;SDS011;15314;49.248;6.968;2023-12-29T01:47:04;11.02;;;10.23;;
27977;SDS011;15314;49.248;6.968;2023-12-29T01:48:10;10.63;;;9.68;;
27977;SDS011;15314;49.248;6.968;2023-12-29T01:49:11;10.70;;;10.10;;
27977;SDS011;15314;49.248;6.968;2023-12-29T01:50:13;10.80;;;9.90;;
27977;SDS011;15314;49.248;6.968;2023-12-29T01:51:14;11.00;;;10.10;;
27977;SDS011;15314;49.248;6.968;2023-12-29T01:52:15;10.75;;;10.15;;
27977;SDS011;15314;49.248;6.968;2023-12-29T01:53:17;10.20;;;9.57;;
27977;SDS011;15314;49.248;6.968;2023-12-29T01:54:18;10.95;;;10.25;;
27977;SDS011;15314;49.248;6.968;2023-12-29T01:55:20;10.68;;;9.98;;
27977;SDS011;15314;49.248;6.968;2023-12-29T01:56:24;11.18;;;10.38;;
27977;SDS011;15314;49.248;6.968;2023-12-29T01:57:25;10.20;;;9.60;;
27977;SDS011;15314;49.248;6.968;2023-12-29T01:58:26;10.05;;;9.43;;
27977;SDS011;15314;49.248;6.968;2023-12-29T01:59:28;10.75;;;9.80;;
27977;SDS011;15314;49.248;6.968;2023-12-29T02:00:29;10.32;;;9.73;;
27977;SDS011;15314;49.248;6.968;2023-12-29T02:01:31;10.27;;;9.52;;
27977;SDS011;15314;49.248;6.968;2023-12-29T02:02:33;10.48;;;9.85;;
27977;SDS011;15314;49.248;6.968;2023-12-29T02:03:34;10.77;;;9.88;;
27977;SDS011;15314;49.248;6.968;2023-12-29T02:04:35;10.23;;;9.40;;
27977;SDS011;15314;49.248;6.968;2023-12-29T02:05:37;10.75;;;10.00;;
27977;SDS011;15314;49.248;6.968;2023-12-29T02:06:39;10.57;;;9.90;;
27977;SDS011;15314;49.248;6.968;2023-12-29T02:07:40;10.57;;;9.95;;
27977;SDS011;15314;49.248;6.968;2023-12-29T02:08:42;11.00;;;10.15;;
27977;SDS011;15314;49.248;6.968;2023-12-29T02:09:42;10.93;;;10.23;;
27977;SDS011;15314;49.248;6.968;2023-12-29T02:10:44;10.45;;;9.85;;
27977;SDS011;15314;49.248;6.968;2023-12-29T02:11:45;11.52;;;10.60;;
27977;SDS011;15314;49.248;6.968;2023-12-29T02:12:47;11.00;;;10.20;;
27977;SDS011;15314;49.248;6.968;2023-12-29T02:13:54;10.95;;;10.15;;
27977;SDS011;15314;49.248;6.968;2023-12-29T02:14:54;10.40;;;9.75;;
27977;SDS011;15314;49.248;6.968;2023-12-29T02:15:56;10.85;;;10.15;;
27977;SDS011;15314;49.248;6.968;2023-12-29T02:18:29;10.63;;;10.02;;
27977;SDS011;15314;49.248;6.968;2023-12-29T02:20:44;11.63;;;10.77;;
27977;SDS011;15314;49.248;6.968;2023-12-29T02:21:45;10.40;;;9.70;;
27977;SDS011;15314;49.248;6.968;2023-12-29T02:22:45;10.73;;;10.13;;
27977;SDS011;15314;49.248;6.968;2023-12-29T02:23:46;11.32;;;10.52;;
27977;SDS011;15314;49.248;6.968;2023-12-29T02:24:49;10.75;;;10.15;;
27977;SDS011;15314;49.248;6.968;2023-12-29T02:25:50;11.80;;;10.90;;
27977;SDS011;15314;49.248;6.968;2023-12-29T02:27:18;10.95;;;10.25;;
27977;SDS011;15314;49.248;6.968;2023-12-29T02:28:35;11.35;;;10.55;;
27977;SDS011;15314;49.248;6.968;2023-12-29T02:29:44;10.77;;;9.93;;
27977;SDS011;15314;49.248;6.968;2023-12-29T02:31:00;12.48;;;11.48;;
27977;SDS011;15314;49.248;6.968;2023-12-29T02:32:06;11.20;;;10.43;;
27977;SDS011;15314;49.248;6.968;2023-12-29T02:33:10;10.85;;;10.05;;
27977;SDS011;15314;49.248;6.968;2023-12-29T02:34:23;10.93;;;10.13;;
27977;SDS011;15314;49.248;6.968;2023-12-29T02:35:25;10.85;;;10.07;;
27977;SDS011;15314;49.248;6.968;2023-12-29T02:36:28;11.40;;;10.60;;
27977;SDS011;15314;49.248;6.968;2023-12-29T02:37:30;11.48;;;10.77;;
27977;SDS011;15314;49.248;6.968;2023-12-29T02:38:32;12.20;;;11.32;;
27977;SDS011;15314;49.248;6.968;2023-12-29T02:39:33;11.35;;;10.63;;
27977;SDS011;15314;49.248;6.968;2023-12-29T02:40:34;12.25;;;11.35;;
27977;SDS011;15314;49.248;6.968;2023-12-29T02:41:38;12.10;;;11.07;;
27977;SDS011;15314;49.248;6.968;2023-12-29T02:42:43;11.75;;;10.95;;
27977;SDS011;15314;49.248;6.968;2023-12-29T02:43:48;11.32;;;10.65;;
27977;SDS011;15314;49.248;6.968;2023-12-29T02:44:48;11.13;;;10.52;;
27977;SDS011;15314;49.248;6.968;2023-12-29T02:45:49;12.07;;;11.27;;
27977;SDS011;15314;49.248;6.968;2023-12-29T02:46:50;11.80;;;10.90;;
27977;SDS011;15314;49.248;6.968;2023-12-29T02:47:51;11.57;;;10.75;;
27977;SDS011;15314;49.248;6.968;2023-12-29T02:48:51;11.77;;;10.88;;
27977;SDS011;15314;49.248;6.968;2023-12-29T02:49:52;11.80;;;10.90;;
27977;SDS011;15314;49.248;6.968;2023-12-29T02:50:54;11.95;;;10.95;;
27977;SDS011;15314;49.248;6.968;2023-12-29T02:51:55;11.88;;;11.00;;
27977;SDS011;15314;49.248;6.968;2023-12-29T02:52:55;11.43;;;10.70;;
27977;SDS011;15314;49.248;6.968;2023-12-29T02:53:56;11.63;;;10.90;;
27977;SDS011;15314;49.248;6.968;2023-12-29T02:54:57;11.63;;;10.73;;
27977;SDS011;15314;49.248;6.968;2023-12-29T02:55:57;10.93;;;10.23;;
27977;SDS011;15314;49.248;6.968;2023-12-29T02:56:58;12.25;;;11.38;;
27977;SDS011;15314;49.248;6.968;2023-12-29T02:57:58;10.98;;;10.27;;
27977;SDS011;15314;49.248;6.968;2023-12-29T02:58:59;11.38;;;10.70;;
27977;SDS011;15314;49.248;6.968;2023-12-29T03:00:00;12.35;;;11.35;;
27977;SDS011;15314;49.248;6.968;2023-12-29T03:01:01;12.45;;;11.57;;
27977;SDS011;15314;49.248;6.968;2023-12-29T03:02:01;12.00;;;11.30;;
27977;SDS011;15314;49.248;6.968;2023-12-29T03:03:02;12.00;;;11.30;;
27977;SDS011;15314;49.248;6.968;2023-12-29T03:04:03;11.90;;;11.13;;
27977;SDS011;15314;49.248;6.968;2023-12-29T03:05:04;12.20;;;11.30;;
27977;SDS011;15314;49.248;6.968;2023-12-29T03:06:05;11.82;;;10.93;;
27977;SDS011;15314;49.248;6.968;2023-12-29T03:07:06;11.35;;;10.45;;
27977;SDS011;15314;49.248;6.968;2023-12-29T03:08:06;11.93;;;11.10;;
27977;SDS011;15314;49.248;6.968;2023-12-29T03:09:07;12.80;;;11.77;;
27977;SDS011;15314;49.248;6.968;2023-12-29T03:10:08;11.68;;;10.98;;
27977;SDS011;15314;49.248;6.968;2023-12-29T03:11:09;12.00;;;11.15;;
27977;SDS011;15314;49.248;6.968;2023-12-29T03:12:09;12.13;;;11.13;;
27977;SDS011;15314;49.248;6.968;2023-12-29T03:13:10;11.65;;;10.95;;
27977;SDS011;15314;49.248;6.968;2023-12-29T03:14:10;12.40;;;11.48;;
27977;SDS011;15314;49.248;6.968;2023-12-29T03:15:11;12.65;;;11.65;;
27977;SDS011;15314;49.248;6.968;2023-12-29T03:16:12;12.15;;;11.02;;
27977;SDS011;15314;49.248;6.968;2023-12-29T03:17:12;11.95;;;11.10;;
27977;SDS011;15314;49.248;6.968;2023-12-29T03:18:13;11.88;;;11.13;;
27977;SDS011;15314;49.248;6.968;2023-12-29T03:19:14;11.80;;;11.00;;
27977;SDS011;15314;49.248;6.968;2023-12-29T03:20:14;11.82;;;11.02;;
27977;SDS011;15314;49.248;6.968;2023-12-29T03:21:15;11.70;;;10.90;;
27977;SDS011;15314;49.248;6.968;2023-12-29T03:22:15;11.55;;;10.75;;
27977;SDS011;15314;49.248;6.968;2023-12-29T03:23:16;11.57;;;10.77;;
27977;SDS011;15314;49.248;6.968;2023-12-29T03:24:17;12.68;;;11.68;;
27977;SDS011;15314;49.248;6.968;2023-12-29T03:25:18;11.75;;;10.65;;
27977;SDS011;15314;49.248;6.968;2023-12-29T03:26:18;12.13;;;11.20;;
27977;SDS011;15314;49.248;6.968;2023-12-29T03:27:19;12.88;;;11.80;;
27977;SDS011;15314;49.248;6.968;2023-12-29T03:28:20;11.73;;;10.98;;
27977;SDS011;15314;49.248;6.968;2023-12-29T03:29:20;12.38;;;11.52;;
27977;SDS011;15314;49.248;6.968;2023-12-29T03:30:21;11.98;;;11.18;;
27977;SDS011;15314;49.248;6.968;2023-12-29T03:31:21;12.05;;;11.25;;
27977;SDS011;15314;49.248;6.968;2023-12-29T03:32:22;11.63;;;10.82;;
27977;SDS011;15314;49.248;6.968;2023-12-29T03:33:23;12.23;;;11.07;;
27977;SDS011;15314;49.248;6.968;2023-12-29T03:34:23;11.48;;;10.60;;
27977;SDS011;15314;49.248;6.968;2023-12-29T03:35:24;11.18;;;10.38;;
27977;SDS011;15314;49.248;6.968;2023-12-29T03:36:24;11.32;;;10.48;;
27977;SDS011;15314;49.248;6.968;2023-12-29T03:37:25;10.95;;;10.23;;
27977;SDS011;15314;49.248;6.968;2023-12-29T03:38:26;11.93;;;11.02;;
27977;SDS011;15314;49.248;6.968;2023-12-29T03:39:26;10.70;;;10.00;;
27977;SDS011;15314;49.248;6.968;2023-12-29T03:40:27;11.85;;;10.75;;
27977;SDS011;15314;49.248;6.968;2023-12-29T03:41:28;11.77;;;10.73;;
27977;SDS011;15314;49.248;6.968;2023-12-29T03:42:28;11.75;;;10.68;;
27977;SDS011;15314;49.248;6.968;2023-12-29T03:43:29;11.23;;;10.38;;
27977;SDS011;15314;49.248;6.968;2023-12-29T03:44:30;11.50;;;10.80;;
27977;SDS011;15314;49.248;6.968;2023-12-29T03:45:30;11.65;;;10.73;;
27977;SDS011;15314;49.248;6.968;2023-12-29T03:46:31;11.43;;;10.73;;
27977;SDS011;15314;49.248;6.968;2023-12-29T03:47:32;12.25;;;11.35;;
27977;SDS011;15314;49.248;6.968;2023-12-29T03:48:33;11.43;;;10.43;;
27977;SDS011;15314;49.248;6.968;2023-12-29T03:49:34;11.02;;;10.43;;
27977;SDS011;15314;49.248;6.968;2023-12-29T03:50:34;11.43;;;10.55;;
27977;SDS011;15314;49.248;6.968;2023-12-29T03:51:35;11.43;;;10.60;;
27977;SDS011;15314;49.248;6.968;2023-12-29T03:52:36;12.07;;;10.63;;
27977;SDS011;15314;49.248;6.968;2023-12-29T03:53:36;12.18;;;11.27;;
27977;SDS011;15314;49.248;6.968;2023-12-29T03:54:37;11.38;;;10.68;;
27977;SDS011;15314;49.248;6.968;2023-12-29T03:55:38;11.23;;;10.43;;
27977;SDS011;15314;49.248;6.968;2023-12-29T03:56:38;11.32;;;10.63;;
27977;SDS011;15314;49.248;6.968;2023-12-29T03:57:39;11.43;;;10.60;;
27977;SDS011;15314;49.248;6.968;2023-12-29T03:58:39;11.52;;;10.70;;
27977;SDS011;15314;49.248;6.968;2023-12-29T03:59:40;12.15;;;10.82;;
27977;SDS011;15314;49.248;6.968;2023-12-29T04:00:41;11.55;;;10.75;;
27977;SDS011;15314;49.248;6.968;2023-12-29T04:01:41;12.00;;;11.00;;
27977;SDS011;15314;49.248;6.968;2023-12-29T04:02:43;11.32;;;10.52;;
27977;SDS011;15314;49.248;6.968;2023-12-29T04:03:43;12.15;;;11.20;;
27977;SDS011;15314;49.248;6.968;2023-12-29T04:04:44;11.38;;;10.68;;
27977;SDS011;15314;49.248;6.968;2023-12-29T04:05:44;11.85;;;10.95;;
27977;SDS011;15314;49.248;6.968;2023-12-29T04:06:45;11.75;;;10.93;;
27977;SDS011;15314;49.248;6.968;2023-12-29T04:07:46;11.90;;;10.90;;
27977;SDS011;15314;49.248;6.968;2023-12-29T04:08:46;11.60;;;10.70;;
27977;SDS011;15314;49.248;6.968;2023-12-29T04:09:47;11.68;;;10.90;;
27977;SDS011;15314;49.248;6.968;2023-12-29T04:10:48;11.73;;;10.93;;
27977;SDS011;15314;49.248;6.968;2023-12-29T04:11:48;12.68;;;11.50;;
27977;SDS011;15314;49.248;6.968;2023-12-29T04:12:49;11.48;;;10.63;;
27977;SDS011;15314;49.248;6.968;2023-12-29T04:13:49;11.38;;;10.57;;
27977;SDS011;15314;49.248;6.968;2023-12-29T04:14:50;11.93;;;10.90;;
27977;SDS011;15314;49.248;6.968;2023-12-29T04:15:51;11.07;;;10.23;;
27977;SDS011;15314;49.248;6.968;2023-12-29T04:16:51;11.85;;;10.85;;
27977;SDS011;15314;49.248;6.968;2023-12-29T04:17:52;12.13;;;11.32;;
27977;SDS011;15314;49.248;6.968;2023-12-29T04:18:52;11.93;;;11.13;;
27977;SDS011;15314;49.248;6.968;2023-12-29T04:19:53;11.70;;;10.80;;
27977;SDS011;15314;49.248;6.968;2023-12-29T04:20:54;11.90;;;11.00;;
27977;SDS011;15314;49.248;6.968;2023-12-29T04:21:54;11.43;;;10.63;;
27977;SDS011;15314;49.248;6.968;2023-12-29T04:22:55;12.00;;;11.10;;
27977;SDS011;15314;49.248;6.968;2023-12-29T04:23:56;11.93;;;10.93;;
27977;SDS011;15314;49.248;6.968;2023-12-29T04:24:56;12.02;;;11.27;;
27977;SDS011;15314;49.248;6.968;2023-12-29T04:25:57;12.57;;;11.38;;
27977;SDS011;15314;49.248;6.968;2023-12-29T04:26:58;11.02;;;10.35;;
27977;SDS011;15314;49.248;6.968;2023-12-29T04:27:58;11.98;;;11.07;;
27977;SDS011;15314;49.248;6.968;2023-12-29T04:28:59;11.75;;;10.95;;
27977;SDS011;15314;49.248;6.968;2023-12-29T04:29:59;11.50;;;10.60;;
27977;SDS011;15314;49.248;6.968;2023-12-29T04:31:00;12.48;;;11.18;;
27977;SDS011;15314;49.248;6.968;2023-12-29T04:32:01;11.10;;;10.48;;
27977;SDS011;15314;49.248;6.968;2023-12-29T04:33:01;12.38;;;10.98;;
27977;SDS011;15314;49.248;6.968;2023-12-29T04:34:02;10.93;;;10.13;;
27977;SDS011;15314;49.248;6.968;2023-12-29T04:35:03;11.38;;;10.57;;
27977;SDS011;15314;49.248;6.968;2023-12-29T04:36:04;11.90;;;11.00;;
27977;SDS011;15314;49.248;6.968;2023-12-29T04:37:05;10.50;;;9.80;;
27977;SDS011;15314;49.248;6.968;2023-12-29T04:38:06;11.95;;;11.02;;
27977;SDS011;15314;49.248;6.968;2023-12-29T04:39:06;12.20;;;11.15;;
27977;SDS011;15314;49.248;6.968;2023-12-29T04:40:10;11.70;;;10.80;;
27977;SDS011;15314;49.248;6.968;2023-12-29T04:41:13;11.55;;;10.68;;
27977;SDS011;15314;49.248;6.968;2023-12-29T04:42:14;12.00;;;11.20;;
27977;SDS011;15314;49.248;6.968;2023-12-29T04:43:15;12.23;;;11.43;;
27977;SDS011;15314;49.248;6.968;2023-12-29T04:44:16;11.77;;;10.88;;
27977;SDS011;15314;49.248;6.968;2023-12-29T04:45:17;12.30;;;11.43;;
27977;SDS011;15314;49.248;6.968;2023-12-29T04:46:18;12.30;;;11.30;;
27977;SDS011;15314;49.248;6.968;2023-12-29T04:47:18;11.93;;;11.02;;
27977;SDS011;15314;49.248;6.968;2023-12-29T04:48:19;11.88;;;10.90;;
27977;SDS011;15314;49.248;6.968;2023-12-29T04:49:19;11.75;;;10.95;;
27977;SDS011;15314;49.248;6.968;2023-12-29T04:50:20;12.20;;;11.30;;
27977;SDS011;15314;49.248;6.968;2023-12-29T04:51:21;11.57;;;10.52;;
27977;SDS011;15314;49.248;6.968;2023-12-29T04:52:21;12.10;;;11.10;;
27977;SDS011;15314;49.248;6.968;2023-12-29T04:53:22;11.45;;;10.45;;
27977;SDS011;15314;49.248;6.968;2023-12-29T04:54:23;10.48;;;9.88;;
27977;SDS011;15314;49.248;6.968;2023-12-29T04:55:24;11.15;;;10.55;;
27977;SDS011;15314;49.248;6.968;2023-12-29T04:56:24;11.80;;;11.05;;
27977;SDS011;15314;49.248;6.968;2023-12-29T04:57:25;11.65;;;10.82;;
27977;SDS011;15314;49.248;6.968;2023-12-29T04:58:25;12.20;;;11.45;;
27977;SDS011;15314;49.248;6.968;2023-12-29T04:59:26;10.75;;;10.07;;
27977;SDS011;15314;49.248;6.968;2023-12-29T05:00:27;10.85;;;9.95;;
27977;SDS011;15314;49.248;6.968;2023-12-29T05:01:27;10.85;;;10.10;;
27977;SDS011;15314;49.248;6.968;2023-12-29T05:02:28;11.50;;;10.48;;
27977;SDS011;15314;49.248;6.968;2023-12-29T05:03:28;11.02;;;10.23;;
27977;SDS011;15314;49.248;6.968;2023-12-29T05:04:29;10.52;;;9.90;;
27977;SDS011;15314;49.248;6.968;2023-12-29T05:05:30;10.35;;;9.85;;
27977;SDS011;15314;49.248;6.968;2023-12-29T05:06:30;10.82;;;10.07;;
27977;SDS011;15314;49.248;6.968;2023-12-29T05:07:31;11.05;;;10.35;;
27977;SDS011;15314;49.248;6.968;2023-12-29T05:08:32;10.48;;;9.80;;
27977;SDS011;15314;49.248;6.968;2023-12-29T05:09:32;10.90;;;10.00;;
27977;SDS011;15314;49.248;6.968;2023-12-29T05:10:33;11.07;;;10.20;;
27977;SDS011;15314;49.248;6.968;2023-12-29T05:11:36;10.45;;;9.65;;
27977;SDS011;15314;49.248;6.968;2023-12-29T05:12:37;10.38;;;9.57;;
27977;SDS011;15314;49.248;6.968;2023-12-29T05:13:37;10.38;;;9.82;;
27977;SDS011;15314;49.248;6.968;2023-12-29T05:14:38;10.57;;;9.85;;
27977;SDS011;15314;49.248;6.968;2023-12-29T05:15:39;10.77;;;10.07;;
27977;SDS011;15314;49.248;6.968;2023-12-29T05:16:40;10.60;;;10.00;;
27977;SDS011;15314;49.248;6.968;2023-12-29T05:17:41;10.30;;;9.70;;
27977;SDS011;15314;49.248;6.968;2023-12-29T05:18:42;10.20;;;9.50;;
27977;SDS011;15314;49.248;6.968;2023-12-29T05:19:42;10.23;;;9.50;;
27977;SDS011;15314;49.248;6.968;2023-12-29T05:20:43;9.55;;;9.05;;
27977;SDS011;15314;49.248;6.968;2023-12-29T05:21:44;9.90;;;9.15;;
27977;SDS011;15314;49.248;6.968;2023-12-29T05:22:44;9.82;;;9.13;;
27977;SDS011;15314;49.248;6.968;2023-12-29T05:23:45;9.95;;;9.45;;
27977;SDS011;15314;49.248;6.968;2023-12-29T05:24:47;9.32;;;8.82;;
27977;SDS011;15314;49.248;6.968;2023-12-29T05:25:48;10.50;;;9.75;;
27977;SDS011;15314;49.248;6.968;2023-12-29T05:26:48;10.05;;;9.45;;
27977;SDS011;15314;49.248;6.968;2023-12-29T05:27:49;10.05;;;9.35;;
27977;SDS011;15314;49.248;6.968;2023-12-29T05:28:50;9.68;;;9.07;;
27977;SDS011;15314;49.248;6.968;2023-12-29T05:29:51;9.88;;;9.38;;
27977;SDS011;15314;49.248;6.968;2023-12-29T05:30:54;9.57;;;9.07;;
27977;SDS011;15314;49.248;6.968;2023-12-29T05:31:54;10.02;;;9.57;;
27977;SDS011;15314;49.248;6.968;2023-12-29T05:32:55;9.60;;;9.07;;
27977;SDS011;15314;49.248;6.968;2023-12-29T05:33:56;9.90;;;9.32;;
27977;SDS011;15314;49.248;6.968;2023-12-29T05:34:56;9.70;;;9.10;;
27977;SDS011;15314;49.248;6.968;2023-12-29T05:35:58;10.63;;;9.93;;
27977;SDS011;15314;49.248;6.968;2023-12-29T05:36:59;10.25;;;9.65;;
27977;SDS011;15314;49.248;6.968;2023-12-29T05:37:59;9.90;;;9.40;;
27977;SDS011;15314;49.248;6.968;2023-12-29T05:39:00;10.13;;;9.43;;
27977;SDS011;15314;49.248;6.968;2023-12-29T05:40:00;9.68;;;9.18;;
27977;SDS011;15314;49.248;6.968;2023-12-29T05:41:02;10.55;;;9.85;;
27977;SDS011;15314;49.248;6.968;2023-12-29T05:42:04;9.50;;;9.00;;
27977;SDS011;15314;49.248;6.968;2023-12-29T05:43:05;10.30;;;9.55;;
27977;SDS011;15314;49.248;6.968;2023-12-29T05:44:05;9.60;;;8.90;;
27977;SDS011;15314;49.248;6.968;2023-12-29T05:45:06;9.90;;;9.30;;
27977;SDS011;15314;49.248;6.968;2023-12-29T05:46:10;9.00;;;8.57;;
27977;SDS011;15314;49.248;6.968;2023-12-29T05:47:11;9.30;;;8.70;;
27977;SDS011;15314;49.248;6.968;2023-12-29T05:48:12;9.35;;;8.85;;
27977;SDS011;15314;49.248;6.968;2023-12-29T05:49:13;9.65;;;8.98;;
27977;SDS011;15314;49.248;6.968;2023-12-29T05:50:13;9.80;;;9.30;;
27977;SDS011;15314;49.248;6.968;2023-12-29T05:51:14;10.32;;;9.63;;
27977;SDS011;15314;49.248;6.968;2023-12-29T05:52:15;9.90;;;9.40;;
27977;SDS011;15314;49.248;6.968;2023-12-29T05:53:15;9.73;;;9.23;;
27977;SDS011;15314;49.248;6.968;2023-12-29T05:54:16;9.95;;;9.35;;
27977;SDS011;15314;49.248;6.968;2023-12-29T05:55:17;10.10;;;9.40;;
27977;SDS011;15314;49.248;6.968;2023-12-29T05:56:19;10.07;;;9.48;;
27977;SDS011;15314;49.248;6.968;2023-12-29T05:57:20;10.27;;;9.43;;
27977;SDS011;15314;49.248;6.968;2023-12-29T05:58:20;10.35;;;9.65;;
27977;SDS011;15314;49.248;6.968;2023-12-29T05:59:21;9.93;;;9.38;;
27977;SDS011;15314;49.248;6.968;2023-12-29T06:00:22;9.48;;;9.00;;
27977;SDS011;15314;49.248;6.968;2023-12-29T06:01:22;9.93;;;9.43;;
27977;SDS011;15314;49.248;6.968;2023-12-29T06:02:23;9.93;;;9.43;;
27977;SDS011;15314;49.248;6.968;2023-12-29T06:03:24;10.15;;;9.65;;
27977;SDS011;15314;49.248;6.968;2023-12-29T06:04:24;10.55;;;9.95;;